Time;durP1;ratioP1;P1;durP2;ratioP2;P2;SDS_P1;SDS_P2;PMS_P1;PMS_P2;Temp;Humidity;BMP_temperature;BMP_pressure;BME280_temperature;BME280_humidity;BME280_pressure;Samples;Min_cycle;Max_cycle;Signal;HPM_P1;HPM_P2
2022/05/11 00:01:12;;;;;;;5.70;3.58;;;;;;;5.14;57.68;99817.52;1728894;83;21573;-77
2022/05/11 00:03:40;;;;;;;5.15;3.37;;;;;;;5.09;58.26;99822.75;1729046;82;21063;-76
2022/05/11 00:06:07;;;;;;;5.70;3.95;;;;;;;5.05;58.39;99818.45;1729111;82;21196;-76
2022/05/11 00:08:33;;;;;;;11.63;4.08;;;;;;;5.00;58.23;99821.53;1730788;82;21137;-77
2022/05/11 00:11:01;;;;;;;5.85;3.80;;;;;;;4.96;58.28;99817.20;1730549;82;21186;-77
2022/05/11 00:13:28;;;;;;;7.50;4.25;;;;;;;4.92;58.20;99824.63;1730239;82;21073;-77
2022/05/11 00:15:55;;;;;;;6.72;4.12;;;;;;;4.89;58.36;99825.50;1730575;82;21160;-76
2022/05/11 00:18:21;;;;;;;5.62;3.37;;;;;;;4.87;58.59;99823.80;1730415;82;21248;-77
2022/05/11 00:20:48;;;;;;;7.47;4.65;;;;;;;4.81;58.58;99821.66;1730358;82;21144;-76
2022/05/11 00:23:14;;;;;;;9.55;4.35;;;;;;;4.79;58.86;99820.81;1734404;81;21142;-76
2022/05/11 00:25:40;;;;;;;8.95;4.70;;;;;;;4.77;59.00;99819.07;1738344;82;21059;-77
2022/05/11 00:28:07;;;;;;;7.42;4.80;;;;;;;4.73;59.06;99823.44;1738750;82;20979;-77
2022/05/11 00:30:34;;;;;;;7.80;4.83;;;;;;;4.71;59.02;99820.40;1738689;82;21074;-74
2022/05/11 00:33:01;;;;;;;6.90;4.62;;;;;;;4.68;58.98;99825.20;1738630;82;21063;-76
2022/05/11 00:35:30;;;;;;;13.08;5.65;;;;;;;4.66;59.09;99825.66;1738826;82;21141;-77
2022/05/11 00:37:57;;;;;;;7.92;5.28;;;;;;;4.63;59.13;99821.77;1738947;82;21050;-77
2022/05/11 00:40:24;;;;;;;9.28;6.00;;;;;;;4.60;59.27;99816.56;1738889;82;21014;-74
2022/05/11 00:42:51;;;;;;;11.15;6.67;;;;;;;4.56;59.46;99818.77;1738588;82;21113;-76
2022/05/11 00:45:18;;;;;;;16.62;7.83;;;;;;;4.54;59.47;99820.49;1739080;82;21089;-77
2022/05/11 00:48:00;;;;;;;16.80;7.95;;;;;;;4.50;59.63;99820.09;1738781;82;21100;-76
2022/05/11 00:50:30;;;;;;;15.28;8.08;;;;;;;4.46;59.81;99818.80;1739018;82;21093;-76
2022/05/11 00:53:09;;;;;;;12.82;7.58;;;;;;;4.42;60.07;99821.42;1738388;82;21003;-75
2022/05/11 00:55:34;;;;;;;13.03;7.70;;;;;;;4.37;60.28;99820.16;1738555;82;21088;-76
2022/05/11 00:58:19;;;;;;;13.98;6.75;;;;;;;4.33;60.48;99828.84;1738416;82;21050;-76
2022/05/11 01:00:46;;;;;;;13.50;7.28;;;;;;;4.28;60.67;99818.89;1738752;82;21993;-77
2022/05/11 01:03:15;;;;;;;10.55;6.72;;;;;;;4.24;60.62;99820.64;1738374;82;21042;-81
2022/05/11 01:05:42;;;;;;;13.28;6.22;;;;;;;4.23;60.73;99825.85;1738669;82;21561;-81
2022/05/11 01:08:09;;;;;;;12.68;6.42;;;;;;;4.19;60.97;99819.80;1738502;82;21664;-81
2022/05/11 01:10:35;;;;;;;10.40;5.78;;;;;;;4.17;61.06;99820.24;1738668;82;21582;-81
2022/05/11 01:13:05;;;;;;;19.45;7.20;;;;;;;4.15;61.19;99828.92;1738855;82;21723;-80
2022/05/11 01:15:33;;;;;;;14.85;6.40;;;;;;;4.12;61.31;99823.72;1738739;82;21035;-81
2022/05/11 01:18:05;;;;;;;12.37;6.90;;;;;;;4.08;61.17;99819.84;1738742;82;21022;-81
2022/05/11 01:20:33;;;;;;;12.05;6.70;;;;;;;4.06;61.29;99817.66;1738587;82;21019;-81
2022/05/11 01:23:34;;;;;;;16.48;7.25;;;;;;;4.05;61.57;99819.84;1738027;81;21538;-76
2022/05/11 01:26:01;;;;;;;9.80;6.70;;;;;;;4.03;61.37;99819.41;1736339;82;21908;-77
2022/05/11 01:28:28;;;;;;;15.05;6.72;;;;;;;4.02;61.44;99815.09;1736117;82;21062;-81
2022/05/11 01:31:04;;;;;;;19.25;7.03;;;;;;;4.01;61.68;99820.71;1736068;82;21087;-81
2022/05/11 01:33:31;;;;;;;14.10;7.20;;;;;;;4.00;61.84;99821.60;1735824;82;21054;-81
2022/05/11 01:36:27;;;;;;;17.67;7.40;;;;;;;3.99;62.00;99819.00;1736229;82;21561;-81
2022/05/11 01:39:04;;;;;;;;;;;;;;;3.96;62.05;99815.95;1738449;82;21158;-81
2022/05/11 01:41:43;;;;;;;10.80;6.87;;;;;;;3.91;62.30;99811.20;1735880;82;20228;-81
2022/05/11 01:44:13;;;;;;;18.32;6.85;;;;;;;3.84;62.33;99816.00;1735628;82;21125;-81
2022/05/11 01:46:41;;;;;;;11.40;7.22;;;;;;;3.79;62.60;99808.20;1736063;82;21616;-81
2022/05/11 01:49:08;;;;;;;13.75;7.60;;;;;;;3.77;62.96;99811.69;1706683;82;20978;-82
2022/05/11 01:51:34;;;;;;;20.50;7.87;;;;;;;3.75;63.10;99813.41;1735536;82;21178;-81
2022/05/11 01:54:01;;;;;;;13.03;7.72;;;;;;;3.72;63.17;99805.19;1735452;82;21104;-81
2022/05/11 01:56:27;;;;;;;13.28;8.18;;;;;;;3.69;63.32;99808.64;1734805;82;21161;-81
2022/05/11 01:58:54;;;;;;;14.53;8.33;;;;;;;3.68;63.54;99807.34;1732392;82;21329;-82
2022/05/11 02:01:23;;;;;;;14.75;7.45;;;;;;;3.66;63.76;99806.48;1732295;82;21316;-82
2022/05/11 02:03:50;;;;;;;11.90;7.25;;;;;;;3.63;63.87;99800.88;1732336;82;21808;-82
2022/05/11 02:09:02;;;;;;;;;;;;;;;3.60;63.92;99800.88;1738488;82;21007;-77
2022/05/11 02:11:30;;;;;;;12.23;6.80;;;;;;;3.60;64.05;99801.28;1735724;82;20138;-76
2022/05/11 02:13:59;;;;;;;16.97;7.40;;;;;;;3.57;64.24;99798.27;1735755;82;21047;-77
2022/05/11 02:16:26;;;;;;;16.50;6.78;;;;;;;3.55;64.24;99796.11;1735688;82;21641;-74
2022/05/11 02:18:54;;;;;;;15.72;7.97;;;;;;;3.54;64.23;99796.97;1735587;82;21601;-74
2022/05/11 02:21:22;;;;;;;13.78;7.30;;;;;;;3.53;64.34;99797.82;1735699;82;21066;-75
2022/05/11 02:23:50;;;;;;;13.38;7.87;;;;;;;3.52;64.37;99798.71;1735731;82;21483;-75
2022/05/11 02:26:19;;;;;;;13.65;7.67;;;;;;;3.50;64.29;99796.55;1736059;82;21184;-75
2022/05/11 02:28:48;;;;;;;17.67;7.15;;;;;;;3.50;64.42;99800.02;1735667;82;21153;-75
2022/05/11 02:31:15;;;;;;;11.05;6.55;;;;;;;3.50;64.60;99796.55;1735550;82;21118;-76
2022/05/11 02:33:41;;;;;;;18.65;7.70;;;;;;;3.48;64.77;99803.06;1735800;82;21058;-75
2022/05/11 02:36:08;;;;;;;14.25;7.30;;;;;;;3.48;64.83;99793.06;1735670;82;21046;-74
2022/05/11 02:38:35;;;;;;;15.20;6.97;;;;;;;3.50;64.75;99791.35;1735953;82;21007;-75
2022/05/11 02:41:01;;;;;;;15.63;7.83;;;;;;;3.52;64.67;99796.11;1736025;82;21110;-75
2022/05/11 02:43:28;;;;;;;16.50;7.65;;;;;;;3.55;64.61;99796.11;1735741;82;21054;-75
2022/05/11 02:45:55;;;;;;;16.45;7.65;;;;;;;3.59;64.60;99798.27;1735619;82;21086;-75
2022/05/11 02:48:24;;;;;;;15.35;7.62;;;;;;;3.61;64.62;99798.68;1735518;82;21165;-75
2022/05/11 02:50:53;;;;;;;15.85;7.42;;;;;;;3.63;64.45;99793.48;1735708;82;21019;-75
2022/05/11 02:53:21;;;;;;;15.53;7.35;;;;;;;3.66;64.45;99794.78;1736136;82;21101;-75
2022/05/11 02:55:50;;;;;;;16.60;7.35;;;;;;;3.67;64.45;99787.41;1735550;82;21090;-75
2022/05/11 02:58:20;;;;;;;21.57;7.97;;;;;;;3.69;64.62;99790.42;1735601;82;20991;-75
2022/05/11 03:00:49;;;;;;;16.80;8.00;;;;;;;3.70;64.70;99790.02;1735681;82;21043;-75
2022/05/11 03:03:16;;;;;;;13.60;7.72;;;;;;;3.74;64.35;99796.08;1735668;82;21043;-75
2022/05/11 03:05:44;;;;;;;12.33;8.00;;;;;;;3.78;64.71;99787.37;1735912;82;21519;-76
2022/05/11 03:08:11;;;;;;;19.32;8.33;;;;;;;3.82;64.68;99795.63;1735393;82;21054;-75
2022/05/11 03:10:39;;;;;;;14.93;7.87;;;;;;;3.84;64.51;99793.88;1735713;82;20995;-75
2022/05/11 03:13:07;;;;;;;16.48;7.72;;;;;;;3.89;64.53;99789.52;1735980;82;21518;-75
2022/05/11 03:15:34;;;;;;;20.55;8.03;;;;;;;3.99;64.50;99795.13;1735722;82;21126;-75
2022/05/11 03:18:01;;;;;;;18.62;8.10;;;;;;;4.05;63.81;99798.13;1735494;82;21712;-75
2022/05/11 03:20:28;;;;;;;13.72;7.75;;;;;;;4.15;64.16;99797.67;1735600;82;21585;-75
2022/05/11 03:22:54;;;;;;;15.25;7.10;;;;;;;4.23;63.46;99794.59;1735496;82;21482;-75
2022/05/11 03:25:22;;;;;;;22.82;7.95;;;;;;;4.31;63.00;99791.97;1751683;81;21531;-75
2022/05/11 03:27:49;;;;;;;17.07;7.50;;;;;;;4.38;62.65;99791.92;1752067;81;21056;-75
2022/05/11 03:30:16;;;;;;;24.75;7.92;;;;;;;4.46;61.75;99790.59;1752121;81;21606;-75
2022/05/11 03:35:28;;;;;;;;;;;;;;;4.64;60.57;99788.33;1755093;81;21059;-75
2022/05/11 03:37:54;;;;;;;23.75;9.70;;;;;;;4.74;60.16;99793.02;1752356;81;20209;-75
2022/05/11 03:40:21;;;;;;;18.70;8.60;;;;;;;4.82;59.36;99792.12;1752521;81;21058;-75
2022/05/11 03:42:47;;;;;;;21.05;9.28;;;;;;;4.92;58.94;99792.03;1752635;81;21835;-75
2022/05/11 03:45:20;;;;;;;15.10;7.80;;;;;;;5.05;58.61;99804.11;1752125;81;20955;-75
2022/05/11 03:47:48;;;;;;;18.77;7.78;;;;;;;5.17;57.97;99800.09;1752337;81;21078;-75
2022/05/11 03:50:16;;;;;;;16.20;7.22;;;;;;;5.33;57.84;99806.48;1752533;81;21058;-76
2022/05/11 03:52:42;;;;;;;17.02;7.45;;;;;;;5.45;57.29;99798.56;1752439;81;21588;-75
2022/05/11 03:55:10;;;;;;;12.37;7.47;;;;;;;5.59;56.99;99801.03;1751284;81;21804;-75
2022/05/11 03:57:37;;;;;;;13.55;6.75;;;;;;;5.72;56.80;99810.92;1752318;81;21074;-75
2022/05/11 04:00:07;;;;;;;16.05;6.37;;;;;;;5.84;56.81;99808.17;1731283;82;21133;-75
2022/05/11 04:02:36;;;;;;;20.27;6.60;;;;;;;5.96;55.84;99811.13;1752157;81;21538;-75
2022/05/11 04:05:03;;;;;;;14.50;6.37;;;;;;;6.11;55.40;99812.71;1752594;81;21506;-75
2022/05/11 04:07:33;;;;;;;14.75;5.95;;;;;;;6.27;54.84;99812.95;1731092;82;21577;-74
2022/05/11 04:09:59;;;;;;;12.73;5.78;;;;;;;6.43;53.58;99806.22;1752173;81;21007;-75
2022/05/11 04:12:29;;;;;;;18.05;6.20;;;;;;;6.60;53.13;99808.16;1730882;82;21065;-76
2022/05/11 04:14:55;;;;;;;17.60;6.35;;;;;;;6.77;53.19;99810.98;1746831;81;21050;-75
2022/05/11 04:17:22;;;;;;;13.58;5.92;;;;;;;6.90;53.41;99807.30;1746921;82;21093;-74
2022/05/11 04:19:49;;;;;;;16.70;5.83;;;;;;;7.04;51.21;99804.05;1752894;81;21161;-75
2022/05/11 04:22:16;;;;;;;17.05;6.45;;;;;;;7.21;49.94;99805.09;1752463;81;20992;-75
2022/05/11 04:24:43;;;;;;;10.45;5.37;;;;;;;7.38;49.31;99806.53;1756785;81;21149;-75
2022/05/11 04:27:10;;;;;;;9.95;5.60;;;;;;;7.53;49.24;99802.80;1759956;81;21062;-75
2022/05/11 04:29:38;;;;;;;12.60;5.83;;;;;;;7.67;48.45;99808.66;1759968;81;21019;-75
2022/05/11 04:32:05;;;;;;;15.40;6.30;;;;;;;7.80;48.32;99806.23;1760180;81;21204;-76
2022/05/11 04:34:32;;;;;;;10.68;5.40;;;;;;;7.93;48.17;99806.00;1759735;81;21601;-75
2022/05/11 04:36:58;;;;;;;10.30;4.30;;;;;;;8.03;47.35;99804.92;1760013;81;22355;-75
2022/05/11 04:39:25;;;;;;;9.85;5.40;;;;;;;8.15;46.59;99806.01;1760253;81;21541;-75
2022/05/11 04:41:51;;;;;;;8.55;4.20;;;;;;;8.26;46.34;99798.38;1760131;81;21061;-75
2022/05/11 04:44:18;;;;;;;9.63;5.05;;;;;;;8.37;45.78;99802.50;1760442;81;22297;-75
2022/05/11 04:46:44;;;;;;;8.50;4.10;;;;;;;8.48;46.05;99803.59;1759768;81;21448;-75
2022/05/11 04:49:16;;;;;;;7.42;4.40;;;;;;;8.61;45.58;99803.32;1759571;81;21506;-76
2022/05/11 04:51:47;;;;;;;11.40;3.92;;;;;;;8.72;45.88;99801.33;1759724;81;21137;-76
2022/05/11 04:54:13;;;;;;;10.68;4.50;;;;;;;8.86;46.04;99794.45;1759608;81;21069;-76
2022/05/11 04:56:40;;;;;;;8.85;4.05;;;;;;;8.99;45.38;99792.41;1759905;81;21111;-76
2022/05/11 04:59:08;;;;;;;12.80;4.17;;;;;;;9.10;45.46;99793.03;1759844;81;21038;-76
2022/05/11 05:01:35;;;;;;;6.08;3.70;;;;;;;9.25;45.76;99799.22;1759837;81;21015;-76
2022/05/11 05:04:02;;;;;;;13.08;4.72;;;;;;;9.40;45.20;99790.55;1759696;81;21024;-76
2022/05/11 05:06:33;;;;;;;9.53;3.60;;;;;;;9.54;44.14;99788.88;1759781;81;21569;-76
2022/05/11 05:09:01;;;;;;;13.30;3.85;;;;;;;9.69;44.70;99790.25;1759781;81;21157;-76
2022/05/11 05:11:27;;;;;;;8.95;4.05;;;;;;;9.82;43.56;99789.87;1760150;81;21015;-76
2022/05/11 05:13:53;;;;;;;8.85;3.58;;;;;;;9.97;43.59;99791.22;1759783;81;21023;-76
2022/05/11 05:16:20;;;;;;;9.88;3.62;;;;;;;10.10;42.75;99789.09;1759961;81;21192;-76
2022/05/11 05:18:48;;;;;;;9.03;3.20;;;;;;;10.26;42.86;99792.16;1760047;81;21042;-76
2022/05/11 05:21:14;;;;;;;5.97;3.20;;;;;;;10.43;42.23;99786.89;1759891;81;21135;-76
2022/05/11 05:23:42;;;;;;;7.60;3.17;;;;;;;10.59;40.90;99790.77;1759794;81;21090;-77
2022/05/11 05:26:09;;;;;;;7.20;3.30;;;;;;;10.73;40.63;99795.17;1759657;81;21564;-76
2022/05/11 05:31:22;;;;;;;;;;;;;;;10.97;39.93;99792.67;1762245;81;21628;-76
2022/05/11 05:33:59;;;;;;;12.28;3.25;;;;;;;11.12;39.82;99797.45;1729598;83;21116;-76
2022/05/11 05:36:17;;;;;;;7.55;3.08;;;;;;;11.24;38.73;99797.97;1727086;83;21553;-76
2022/05/11 05:38:44;;;;;;;7.37;3.30;;;;;;;11.32;39.08;99790.67;1729422;82;21023;-76
2022/05/11 05:41:10;;;;;;;9.68;3.02;;;;;;;11.43;38.84;99787.66;1729384;83;21074;-76
2022/05/11 05:43:37;;;;;;;11.88;2.87;;;;;;;11.55;38.17;99794.30;1727995;82;20999;-76
2022/05/11 05:46:04;;;;;;;7.83;2.67;;;;;;;11.64;38.53;99791.36;1726082;83;22158;-76
2022/05/11 05:48:30;;;;;;;8.60;2.70;;;;;;;11.75;37.81;99787.90;1726605;83;21550;-75
2022/05/11 05:51:05;;;;;;;3.83;2.40;;;;;;;11.87;36.65;99795.83;1727243;83;21549;-76
2022/05/11 05:53:32;;;;;;;7.12;2.92;;;;;;;11.95;36.48;99790.30;1726775;83;21074;-76
2022/05/11 05:55:59;;;;;;;12.82;2.70;;;;;;;12.05;36.52;99794.32;1727217;83;21505;-75
2022/05/11 05:58:25;;;;;;;9.43;2.80;;;;;;;12.14;36.93;99794.00;1726981;83;21819;-76
2022/05/11 06:00:52;;;;;;;7.87;2.90;;;;;;;12.27;36.64;99791.75;1727106;83;21582;-77
2022/05/11 06:03:22;;;;;;;8.33;2.62;;;;;;;12.38;36.75;99785.63;1726846;83;21057;-76
2022/05/11 06:05:49;;;;;;;7.05;2.50;;;;;;;12.49;35.80;99790.95;1727047;83;21062;-76
2022/05/11 06:08:16;;;;;;;10.63;2.08;;;;;;;12.61;35.02;99791.36;1726636;83;21066;-76
2022/05/11 06:10:43;;;;;;;5.75;2.35;;;;;;;12.69;35.49;99784.91;1727734;82;21109;-75
2022/05/11 06:13:13;;;;;;;5.53;2.20;;;;;;;12.77;34.52;99777.55;1729390;83;21116;-76
2022/05/11 06:15:41;;;;;;;8.38;2.52;;;;;;;12.82;34.06;99779.55;1729481;82;21324;-76
2022/05/11 06:18:09;;;;;;;5.95;2.02;;;;;;;12.89;34.62;99778.38;1729449;82;21128;-76
2022/05/11 06:20:36;;;;;;;7.58;2.27;;;;;;;13.00;34.19;99781.92;1697282;83;21348;-76
2022/05/11 06:23:04;;;;;;;5.33;1.87;;;;;;;13.08;33.69;99771.91;1729461;83;21780;-77
2022/05/11 06:25:33;;;;;;;5.03;1.42;;;;;;;13.14;33.66;99772.11;1729283;82;21071;-76
2022/05/11 06:27:59;;;;;;;6.67;1.50;;;;;;;13.26;33.15;99768.95;1729341;82;21113;-76
2022/05/11 06:30:27;;;;;;;2.15;1.50;;;;;;;13.37;32.10;99765.91;1694902;83;21091;-77
2022/05/11 06:32:54;;;;;;;4.58;1.50;;;;;;;13.48;32.28;99770.72;1730092;82;21050;-76
2022/05/11 06:35:22;;;;;;;4.55;1.62;;;;;;;13.60;32.50;99770.22;1729382;82;21141;-76
2022/05/11 06:37:50;;;;;;;6.97;1.72;;;;;;;13.70;32.23;99767.57;1695021;84;21118;-76
2022/05/11 06:40:18;;;;;;;3.37;1.60;;;;;;;13.80;31.82;99761.86;1729610;82;21089;-76
2022/05/11 06:42:45;;;;;;;3.12;1.42;;;;;;;13.81;30.74;99758.30;1729806;82;21074;-76
2022/05/11 06:45:11;;;;;;;6.67;1.27;;;;;;;13.79;31.21;99752.23;1694978;84;21039;-76
2022/05/11 06:47:38;;;;;;;5.08;1.75;;;;;;;13.84;31.53;99750.23;1729771;82;21556;-76
2022/05/11 06:50:06;;;;;;;1.52;1.35;;;;;;;13.98;31.12;99757.55;1729421;82;21486;-76
2022/05/11 06:52:32;;;;;;;3.42;1.30;;;;;;;14.16;30.96;99755.88;1695281;83;21078;-76
2022/05/11 07:00:30;;;;;;;2.25;1.80;;;;;;;14.44;30.08;99744.41;1694882;84;21246;-76
2022/05/11 07:02:56;;;;;;;3.52;2.00;;;;;;;14.55;29.04;99744.36;1695426;84;21106;-76
2022/05/11 07:05:23;;;;;;;2.98;1.60;;;;;;;14.52;29.52;99739.20;1729598;82;21080;-76
2022/05/11 07:07:53;;;;;;;6.80;1.82;;;;;;;14.53;30.28;99740.45;1729483;82;21128;-76
2022/05/11 07:10:20;;;;;;;2.67;1.82;;;;;;;14.58;29.66;99741.56;1695211;84;21015;-76
2022/05/11 07:12:48;;;;;;;10.23;1.75;;;;;;;14.62;29.04;99728.59;1729651;82;21118;-76
2022/05/11 07:15:19;;;;;;;6.45;1.72;;;;;;;14.63;29.34;99726.34;1729460;82;21058;-77
2022/05/11 07:17:54;;;;;;;1.95;1.70;;;;;;;14.64;29.74;99728.05;1694980;84;21047;-76
2022/05/11 07:20:24;;;;;;;;;;;;;;;14.70;29.28;99717.17;1731998;82;21022;-76
2022/05/11 07:22:51;;;;;;;5.00;1.77;;;;;;;14.84;29.76;99717.37;1699206;84;20225;-76
2022/05/11 07:25:18;;;;;;;5.05;2.15;;;;;;;14.94;28.12;99708.95;1728532;82;21526;-76
2022/05/11 07:27:45;;;;;;;3.27;1.57;;;;;;;14.97;28.03;99712.78;1696566;84;21110;-76
2022/05/11 07:30:15;;;;;;;2.77;1.75;;;;;;;14.95;28.16;99712.00;1726709;83;21026;-76
2022/05/11 07:32:42;;;;;;;2.37;1.70;;;;;;;15.00;27.91;99720.58;1726688;83;21096;-76
2022/05/11 07:35:09;;;;;;;9.13;1.95;;;;;;;15.01;28.45;99713.00;1696483;84;21079;-76
2022/05/11 07:37:37;;;;;;;5.33;1.70;;;;;;;15.04;28.96;99709.73;1726806;83;21132;-75
2022/05/11 07:40:05;;;;;;;5.55;1.90;;;;;;;15.15;28.83;99707.88;1757254;81;21557;-76
2022/05/11 07:42:32;;;;;;;2.02;1.40;;;;;;;15.24;28.41;99702.58;1725537;83;21094;-76
2022/05/11 07:44:58;;;;;;;4.55;1.92;;;;;;;15.32;28.59;99708.83;1725828;83;21067;-77
2022/05/11 07:47:25;;;;;;;2.85;1.62;;;;;;;15.47;28.36;99696.58;1725577;83;21494;-76
2022/05/11 07:49:51;;;;;;;4.97;1.85;;;;;;;15.65;28.69;99693.41;1725919;83;21118;-76
2022/05/11 07:52:18;;;;;;;5.30;2.15;;;;;;;15.87;28.67;99700.66;1725544;83;21055;-76
2022/05/11 07:54:44;;;;;;;5.53;2.60;;;;;;;16.06;28.37;99691.71;1725403;83;21007;-77
2022/05/11 07:59:56;;;;;;;3.40;2.30;;;;;;;16.33;28.24;99686.67;1725839;83;21110;-76
2022/05/11 08:02:29;;;;;;;3.05;1.80;;;;;;;16.47;27.99;99688.55;1725905;83;21169;-76
2022/05/11 08:04:58;;;;;;;2.80;1.87;;;;;;;16.56;27.86;99688.05;1724552;82;21114;-75
2022/05/11 08:07:30;;;;;;;2.83;1.72;;;;;;;16.65;26.89;99691.97;1725797;83;21075;-76
2022/05/11 08:09:58;;;;;;;6.03;1.82;;;;;;;16.66;26.11;99689.23;1721422;82;21000;-76
2022/05/11 08:12:24;;;;;;;7.62;2.00;;;;;;;16.67;26.23;99688.27;1725505;83;21523;-75
2022/05/11 08:14:51;;;;;;;2.62;2.20;;;;;;;16.61;25.77;99685.98;1725352;83;22089;-76
2022/05/11 08:17:31;;;;;;;4.40;2.58;;;;;;;16.58;26.60;99687.48;1725289;83;21558;-76
2022/05/11 08:19:59;;;;;;;4.92;2.83;;;;;;;16.65;26.15;99676.88;1725523;83;21656;-75
2022/05/11 08:22:27;;;;;;;5.33;2.77;;;;;;;16.76;25.68;99681.59;1696341;84;21107;-75
2022/05/11 08:24:56;;;;;;;10.45;4.20;;;;;;;16.90;25.57;99676.35;1726887;83;21129;-76
2022/05/11 08:27:28;;;;;;;9.93;4.90;;;;;;;17.02;25.52;99672.60;1726827;83;21681;-76
2022/05/11 08:35:29;;;;;;;12.28;5.78;;;;;;;17.05;25.71;99681.24;1671572;84;21101;-75
2022/05/11 08:37:59;;;;;;;9.98;4.95;;;;;;;17.16;25.32;99678.42;1726750;83;21010;-75
2022/05/11 08:40:39;;;;;;;13.22;5.45;;;;;;;17.28;25.31;99673.69;1697542;84;21783;-75
2022/05/11 08:43:13;;;;;;;9.73;4.70;;;;;;;17.35;24.09;99664.42;1726883;83;21073;-75
2022/05/11 08:46:10;;;;;;;14.05;5.78;;;;;;;17.33;24.22;99666.33;1697880;84;21093;-75
2022/05/11 08:49:03;;;;;;;12.50;6.10;;;;;;;17.26;24.68;99670.27;1726936;83;21089;-75
2022/05/11 08:52:00;;;;;;;15.60;6.58;;;;;;;17.34;25.05;99668.02;1698084;84;21109;-75
2022/05/11 08:54:50;;;;;;;12.20;6.70;;;;;;;17.55;25.11;99665.87;1726770;83;21150;-75
2022/05/11 08:57:23;;;;;;;16.48;8.60;;;;;;;17.72;24.07;99655.97;1697746;84;21094;-75
2022/05/11 08:59:59;;;;;;;21.05;8.50;;;;;;;17.68;23.78;99661.11;1726805;83;21066;-75
2022/05/11 09:02:40;;;;;;;19.30;9.03;;;;;;;17.60;24.78;99653.59;1696776;84;21084;-75
2022/05/11 09:05:08;;;;;;;18.10;9.00;;;;;;;17.54;23.56;99653.99;1726220;83;21108;-75
2022/05/11 09:07:38;;;;;;;13.95;8.00;;;;;;;17.49;24.13;99646.77;1697618;84;21809;-75
2022/05/11 09:10:06;;;;;;;12.98;6.97;;;;;;;17.59;24.60;99640.77;1726753;83;21078;-76
2022/05/11 09:12:35;;;;;;;13.03;6.75;;;;;;;17.81;24.04;99635.45;1697620;84;21018;-75
2022/05/11 09:15:03;;;;;;;15.72;7.12;;;;;;;17.95;23.96;99631.95;1726833;83;22240;-76
2022/05/11 09:17:33;;;;;;;17.87;7.92;;;;;;;18.06;23.42;99628.63;1697606;84;21089;-75
2022/05/11 09:20:11;;;;;;;20.45;9.38;;;;;;;18.18;23.95;99631.33;1727158;83;21635;-75
2022/05/11 09:22:42;;;;;;;18.10;9.15;;;;;;;18.35;23.79;99624.91;1697855;84;21204;-75
2022/05/11 09:25:20;;;;;;;20.48;9.78;;;;;;;18.47;23.33;99621.92;1724630;82;21033;-75
2022/05/11 09:27:48;;;;;;;23.27;9.38;;;;;;;18.42;22.85;99625.36;1700374;84;21053;-75
2022/05/11 09:30:20;;;;;;;18.07;9.08;;;;;;;18.42;23.66;99623.19;1730178;82;21067;-75
2022/05/11 09:32:47;;;;;;;16.00;8.58;;;;;;;18.59;23.81;99616.74;1700721;84;21165;-75
2022/05/11 09:35:25;;;;;;;19.37;8.80;;;;;;;18.80;23.85;99625.98;1729778;82;21082;-75
2022/05/11 09:38:09;;;;;;;12.75;7.50;;;;;;;18.91;23.21;99618.16;1695075;84;21079;-75
2022/05/11 09:41:04;;;;;;;14.45;7.45;;;;;;;18.90;22.59;99619.59;1707896;82;21023;-76
2022/05/11 09:43:55;;;;;;;21.97;7.53;;;;;;;18.65;22.32;99613.69;1737698;82;21070;-75
2022/05/11 09:46:31;;;;;;;12.53;6.53;;;;;;;18.43;22.04;99604.92;1746701;81;22291;-75
2022/05/11 09:49:13;;;;;;;10.80;6.22;;;;;;;18.22;22.44;99605.35;1747453;82;22215;-75
2022/05/11 09:51:50;;;;;;;17.60;6.90;;;;;;;18.17;22.19;99604.80;1748034;82;21033;-75
2022/05/11 09:54:50;;;;;;;15.40;7.50;;;;;;;18.08;23.41;99604.92;1747495;82;20967;-75
2022/05/11 09:57:20;;;;;;;18.80;7.35;;;;;;;18.16;24.09;99605.28;1747996;82;21136;-75
2022/05/11 09:59:52;;;;;;;16.52;6.72;;;;;;;18.48;23.56;99603.66;1747423;82;21514;-76
2022/05/11 10:02:40;;;;;;;17.12;7.35;;;;;;;18.79;23.82;99601.60;1747571;82;21010;-74
2022/05/11 10:05:20;;;;;;;13.20;6.40;;;;;;;19.01;22.23;99601.02;1728926;82;21041;-75
2022/05/11 10:08:01;;;;;;;13.62;6.33;;;;;;;19.09;22.34;99603.18;1748026;82;21041;-75
2022/05/11 10:11:04;;;;;;;17.62;8.03;;;;;;;19.15;21.69;99601.89;1747498;82;21191;-75
2022/05/11 10:13:39;;;;;;;13.75;7.55;;;;;;;19.16;22.20;99604.45;1748265;81;21139;-75
2022/05/11 10:22:34;;;;;;;7.35;4.35;;;;;;;19.71;21.53;99602.41;1759706;81;21074;-75
2022/05/11 10:25:24;;;;;;;9.83;4.62;;;;;;;19.68;20.76;99589.28;1760319;81;21639;-74
2022/05/11 10:28:05;;;;;;;20.27;4.60;;;;;;;19.56;22.04;99583.00;1738766;82;21832;-74
2022/05/11 10:31:00;;;;;;;9.93;4.80;;;;;;;19.44;21.14;99588.72;1738697;82;21041;-74
2022/05/11 10:33:47;;;;;;;12.23;4.80;;;;;;;19.15;21.06;99580.55;1738784;82;21061;-74
2022/05/11 10:36:47;;;;;;;10.50;5.53;;;;;;;18.86;22.09;99584.29;1739210;82;21065;-75
2022/05/11 10:39:22;;;;;;;6.92;4.22;;;;;;;18.70;22.30;99584.91;1738704;82;21001;-75
2022/05/11 10:42:16;;;;;;;9.83;4.17;;;;;;;18.71;23.03;99578.61;1738353;82;21139;-74
2022/05/11 10:45:27;;;;;;;10.68;5.22;;;;;;;18.79;22.40;99574.95;1738928;82;21017;-74
2022/05/11 10:48:11;;;;;;;9.60;3.98;;;;;;;18.79;23.02;99568.77;1705432;82;21176;-75
2022/05/11 10:50:58;;;;;;;11.33;5.12;;;;;;;19.00;23.13;99571.83;1738673;82;21073;-75
2022/05/11 10:53:39;;;;;;;9.18;3.67;;;;;;;19.05;22.86;99549.70;1738990;82;21579;-75
2022/05/11 10:56:39;;;;;;;7.40;3.17;;;;;;;19.03;21.51;99550.26;1738895;82;21533;-74
2022/05/11 10:59:45;;;;;;;7.87;3.10;;;;;;;18.98;22.37;99543.06;1738565;82;21068;-75
2022/05/11 11:02:50;;;;;;;6.40;2.65;;;;;;;19.08;22.83;99550.79;1738661;82;21069;-75
2022/05/11 11:05:43;;;;;;;11.15;4.12;;;;;;;18.96;22.52;99554.31;1738857;82;20990;-74
2022/05/11 11:08:27;;;;;;;7.17;2.92;;;;;;;19.01;22.04;99546.85;1739315;82;21553;-74
2022/05/11 11:11:01;;;;;;;;;;;;;;;19.20;22.37;99547.30;1741383;82;21752;-74
2022/05/11 11:13:51;;;;;;;9.08;3.65;;;;;;;19.30;22.67;99539.02;1708102;82;20536;-75
2022/05/11 11:16:18;;;;;;;4.80;2.95;;;;;;;19.52;23.21;99534.83;1738857;82;21159;-74
2022/05/11 11:18:49;;;;;;;9.58;2.60;;;;;;;19.87;23.00;99540.80;1738528;82;21164;-75
2022/05/11 11:21:16;;;;;;;3.05;1.57;;;;;;;20.02;22.82;99537.01;1738501;82;21658;-75
2022/05/11 11:23:47;;;;;;;7.55;2.50;;;;;;;20.11;21.56;99539.97;1739035;82;21563;-75
2022/05/11 11:26:29;;;;;;;5.60;2.17;;;;;;;19.97;22.26;99543.17;1737914;81;21000;-76
2022/05/11 11:29:05;;;;;;;4.17;2.10;;;;;;;19.78;23.02;99536.13;1728752;82;21089;-76
2022/05/11 11:31:32;;;;;;;17.23;5.08;;;;;;;19.74;23.36;99531.95;1734495;82;21103;-76
2022/05/11 11:34:08;;;;;;;4.53;2.15;;;;;;;19.90;23.36;99529.03;1735973;82;21086;-75
2022/05/11 11:36:40;;;;;;;2.12;1.65;;;;;;;19.95;22.93;99530.39;1743254;81;21108;-76
2022/05/11 11:39:10;;;;;;;3.92;1.85;;;;;;;20.02;21.79;99534.34;1724062;83;20929;-76
2022/05/11 11:41:48;;;;;;;4.85;1.77;;;;;;;19.95;22.00;99529.55;1723994;83;21129;-76
2022/05/11 11:44:24;;;;;;;6.97;2.10;;;;;;;19.79;22.57;99519.99;1723801;83;21691;-76
2022/05/11 11:46:50;;;;;;;2.95;2.10;;;;;;;19.86;23.90;99531.92;1728501;82;21462;-75
2022/05/11 11:49:26;;;;;;;5.10;1.98;;;;;;;20.05;22.64;99511.88;1732523;82;21824;-76
2022/05/11 11:52:02;;;;;;;7.08;2.50;;;;;;;20.11;23.04;99506.09;1732322;82;21065;-76
2022/05/11 11:54:43;;;;;;;6.58;2.58;;;;;;;20.26;23.21;99510.77;1732515;82;21062;-75
2022/05/11 11:57:25;;;;;;;4.35;2.33;;;;;;;20.37;23.32;99508.13;1732365;82;22109;-75
2022/05/11 12:00:08;;;;;;;3.20;2.22;;;;;;;20.43;22.02;99509.99;1732172;82;21109;-75
2022/05/11 12:02:46;;;;;;;5.17;2.65;;;;;;;20.48;22.57;99505.15;1698648;82;21549;-76
2022/05/11 12:05:26;;;;;;;9.40;2.90;;;;;;;20.59;21.48;99502.48;1731541;82;21077;-76
2022/05/11 12:16:54;;;;;;;8.53;3.30;;;;;;;20.74;21.48;99477.27;1732558;82;21113;-76
2022/05/11 12:19:23;;;;;;;6.05;3.45;;;;;;;20.66;22.19;99491.75;1736050;80;21538;-76
2022/05/11 12:22:13;;;;;;;7.35;2.50;;;;;;;20.86;22.40;99485.31;1749384;81;21027;-76
2022/05/11 12:24:45;;;;;;;9.38;4.87;;;;;;;21.14;22.61;99481.33;1741267;82;21114;-76
2022/05/11 12:27:25;;;;;;;7.85;4.40;;;;;;;21.22;21.75;99478.90;1749791;81;21491;-76
2022/05/11 12:29:59;;;;;;;6.87;3.08;;;;;;;21.32;21.99;99476.34;1725713;82;21137;-76
2022/05/11 12:32:35;;;;;;;10.70;4.55;;;;;;;21.57;21.74;99471.23;1750790;82;21625;-75